Time;durP1;ratioP1;P1;durP2;ratioP2;P2;SDS_P1;SDS_P2;PMS_P1;PMS_P2;Temp;Humidity;BMP_temperature;BMP_pressure;BME280_temperature;BME280_humidity;BME280_pressure;Samples;Min_cycle;Max_cycle;Signal;HPM_P1;HPM_P2
2023/06/01 04:01:42;;;;;;;;;;;14.60;97.50;;;;;;5437598;22;20337;-63
2023/06/01 04:04:08;;;;;;;;;;;14.60;97.70;;;;;;5013243;28;19913;-64
2023/06/01 04:06:35;;;;;;;;;;;14.60;97.80;;;;;;5016368;28;20044;-64
2023/06/01 04:09:06;;;;;;;;;;;14.60;98.00;;;;;;5016130;28;19909;-64
2023/06/01 04:11:34;;;;;;;;;;;14.60;98.30;;;;;;5015794;28;19916;-64
2023/06/01 04:14:00;;;;;;;;;;;14.70;98.50;;;;;;5014751;28;19910;-64
2023/06/01 04:16:25;;;;;;;;;;;14.70;98.50;;;;;;5016443;28;19916;-66
2023/06/01 04:18:51;;;;;;;;;;;14.80;98.70;;;;;;5015573;28;19917;-66
2023/06/01 04:21:17;;;;;;;;;;;14.80;98.90;;;;;;5023366;28;20365;-66
2023/06/01 04:23:43;;;;;;;;;;;14.70;99.20;;;;;;5036461;28;19980;-66
2023/06/01 04:26:08;;;;;;;;;;;14.70;99.70;;;;;;5034596;28;20378;-66
2023/06/01 04:28:34;;;;;;;;;;;14.70;99.90;;;;;;5034141;28;20013;-66
2023/06/01 04:31:02;;;;;;;;;;;14.70;99.90;;;;;;5024592;28;19949;-66
2023/06/01 04:33:27;;;;;;;;;;;14.70;99.90;;;;;;5015499;28;19918;-66
2023/06/01 04:35:53;;;;;;;;;;;14.80;99.90;;;;;;5015837;28;20267;-66
2023/06/01 04:38:19;;;;;;;;;;;14.80;99.90;;;;;;5010984;28;19956;-66
2023/06/01 04:40:45;;;;;;;;;;;14.80;99.90;;;;;;5014316;28;19914;-66
2023/06/01 04:43:11;;;;;;;;;;;14.90;99.90;;;;;;5014745;28;19909;-66
2023/06/01 04:45:38;;;;;;;;;;;15.00;99.90;;;;;;5015567;28;19916;-67
2023/06/01 04:48:08;;;;;;;;;;;15.00;99.90;;;;;;5010590;28;19909;-66
2023/06/01 04:50:34;;;;;;;;;;;15.00;99.90;;;;;;4998808;28;19914;-66
2023/06/01 04:53:00;;;;;;;;;;;15.00;99.90;;;;;;4996591;28;19914;-66
2023/06/01 04:55:26;;;;;;;;;;;15.10;99.90;;;;;;4996202;28;19914;-66
2023/06/01 04:57:51;;;;;;;;;;;15.10;99.90;;;;;;4996008;28;19920;-66
2023/06/01 05:00:18;;;;;;;;;;;15.10;99.90;;;;;;4995523;28;19948;-66
2023/06/01 05:02:44;;;;;;;;;;;15.10;99.90;;;;;;5014273;28;19910;-66
2023/06/01 05:05:10;;;;;;;;;;;15.20;99.90;;;;;;5010094;28;19913;-67
2023/06/01 05:07:36;;;;;;;;;;;15.30;99.90;;;;;;4998720;28;20263;-67
2023/06/01 05:10:05;;;;;;;;;;;15.40;99.90;;;;;;5012530;28;19917;-67
2023/06/01 05:12:31;;;;;;;;;;;15.50;99.90;;;;;;5010285;28;19910;-67
2023/06/01 05:14:57;;;;;;;;;;;15.60;99.90;;;;;;5012329;28;19917;-67
2023/06/01 05:17:22;;;;;;;;;;;15.60;99.80;;;;;;5018946;28;19960;-67
2023/06/01 05:19:47;;;;;;;;;;;15.70;99.70;;;;;;5014529;28;19920;-67
2023/06/01 05:22:13;;;;;;;;;;;15.70;99.90;;;;;;5015792;28;20000;-67
2023/06/01 05:24:38;;;;;;;;;;;15.80;99.90;;;;;;5014962;28;20060;-67
2023/06/01 05:27:04;;;;;;;;;;;15.90;99.80;;;;;;5015372;28;19909;-67
2023/06/01 05:29:30;;;;;;;;;;;16.00;99.50;;;;;;5015201;28;19916;-67
2023/06/01 05:31:55;;;;;;;;;;;16.00;99.30;;;;;;5014762;28;20004;-67
2023/06/01 05:34:22;;;;;;;;;;;16.10;99.30;;;;;;5013169;28;19910;-66
2023/06/01 05:36:48;;;;;;;;;;;16.10;99.40;;;;;;5014640;28;20004;-65
2023/06/01 05:39:14;;;;;;;;;;;16.20;99.30;;;;;;5014418;28;20286;-65
2023/06/01 05:41:40;;;;;;;;;;;16.30;98.90;;;;;;5013152;28;19948;-66
2023/06/01 05:44:06;;;;;;;;;;;16.30;98.70;;;;;;5014492;28;19910;-66
2023/06/01 05:46:31;;;;;;;;;;;16.30;98.80;;;;;;5019637;28;20052;-65
2023/06/01 05:48:57;;;;;;;;;;;16.50;98.40;;;;;;5016529;28;19909;-67
2023/06/01 05:51:22;;;;;;;;;;;16.50;98.40;;;;;;5016619;28;19917;-66
2023/06/01 05:53:47;;;;;;;;;;;16.50;98.00;;;;;;5015357;28;20349;-66
2023/06/01 05:56:13;;;;;;;;;;;16.60;97.80;;;;;;5014939;28;19948;-66
2023/06/01 05:58:39;;;;;;;;;;;16.70;97.50;;;;;;5015901;28;20119;-66
2023/06/01 06:01:04;;;;;;;;;;;16.80;97.50;;;;;;5015770;28;19917;-66
2023/06/01 06:03:30;;;;;;;;;;;16.90;97.30;;;;;;5017783;28;19909;-67
2023/06/01 06:05:55;;;;;;;;;;;16.90;97.30;;;;;;5019270;28;19917;-65
2023/06/01 06:08:21;;;;;;;;;;;17.00;97.20;;;;;;5018326;28;19909;-65
2023/06/01 06:10:46;;;;;;;;;;;17.10;97.40;;;;;;5006318;28;19968;-64
2023/06/01 06:13:13;;;;;;;;;;;17.20;96.60;;;;;;5013042;28;19914;-64
2023/06/01 06:15:39;;;;;;;;;;;17.40;96.30;;;;;;5014064;28;19991;-64
2023/06/01 06:18:04;;;;;;;;;;;17.50;95.50;;;;;;5014730;28;20368;-65
2023/06/01 06:20:30;;;;;;;;;;;17.60;95.10;;;;;;5012904;28;20349;-65
2023/06/01 06:22:55;;;;;;;;;;;17.70;94.60;;;;;;5014317;28;20255;-65
2023/06/01 06:25:21;;;;;;;;;;;17.90;94.20;;;;;;5013883;28;19909;-65
2023/06/01 06:27:47;;;;;;;;;;;17.90;94.00;;;;;;5014222;28;20366;-65
2023/06/01 06:30:13;;;;;;;;;;;18.00;93.70;;;;;;5014511;28;19913;-66
2023/06/01 06:32:38;;;;;;;;;;;18.10;93.20;;;;;;5011565;28;20294;-65
2023/06/01 06:35:03;;;;;;;;;;;18.20;92.90;;;;;;5008369;28;20352;-65
2023/06/01 06:37:30;;;;;;;;;;;18.30;92.90;;;;;;5013920;28;19949;-66
2023/06/01 06:39:55;;;;;;;;;;;18.30;92.50;;;;;;5013719;28;20452;-65
2023/06/01 06:42:21;;;;;;;;;;;18.40;91.80;;;;;;5012712;28;19956;-66
2023/06/01 06:44:47;;;;;;;;;;;18.50;91.30;;;;;;5013757;28;19909;-65
2023/06/01 06:47:15;;;;;;;;;;;18.60;91.10;;;;;;5013457;28;19909;-66
2023/06/01 06:49:40;;;;;;;;;;;18.60;91.10;;;;;;5012083;28;19910;-65
2023/06/01 06:52:08;;;;;;;;;;;18.70;90.60;;;;;;5013455;28;20277;-66
2023/06/01 06:54:35;;;;;;;;;;;18.90;90.40;;;;;;5013957;28;19964;-66
2023/06/01 06:57:00;;;;;;;;;;;19.00;90.50;;;;;;5013035;28;19909;-67
2023/06/01 06:59:26;;;;;;;;;;;19.00;90.40;;;;;;5013715;28;20048;-66
2023/06/01 07:01:51;;;;;;;;;;;19.00;90.30;;;;;;5013406;28;19925;-66
2023/06/01 07:04:17;;;;;;;;;;;19.10;90.00;;;;;;5013208;28;19909;-66
2023/06/01 07:06:42;;;;;;;;;;;19.30;89.40;;;;;;5014253;28;19921;-66
2023/06/01 07:09:09;;;;;;;;;;;19.30;89.70;;;;;;5013533;28;19910;-66
2023/06/01 07:11:34;;;;;;;;;;;19.40;90.00;;;;;;5013852;28;19910;-66
2023/06/01 07:14:00;;;;;;;;;;;19.50;89.10;;;;;;5014959;28;20259;-67
2023/06/01 07:16:26;;;;;;;;;;;19.50;89.00;;;;;;5015964;28;20286;-67
2023/06/01 07:18:52;;;;;;;;;;;19.60;88.10;;;;;;5016842;28;20398;-65
2023/06/01 07:21:17;;;;;;;;;;;19.60;88.20;;;;;;5016742;28;20366;-66
2023/06/01 07:23:44;;;;;;;;;;;19.60;88.00;;;;;;5015438;28;19958;-66
2023/06/01 07:26:10;;;;;;;;;;;19.70;88.00;;;;;;5015447;28;20373;-67
2023/06/01 07:28:35;;;;;;;;;;;19.70;87.50;;;;;;5016954;28;20004;-67
2023/06/01 07:31:00;;;;;;;;;;;19.80;87.20;;;;;;5015321;28;19922;-66
2023/06/01 07:33:26;;;;;;;;;;;19.90;87.20;;;;;;5016447;28;20329;-65
2023/06/01 07:35:56;;;;;;;;;;;20.00;87.10;;;;;;5017675;28;19914;-67
2023/06/01 07:38:22;;;;;;;;;;;20.10;86.70;;;;;;5015208;28;19979;-67
2023/06/01 07:40:50;;;;;;;;;;;20.30;86.40;;;;;;5017024;28;20387;-67
2023/06/01 07:43:15;;;;;;;;;;;20.40;86.20;;;;;;5015789;28;20382;-67
2023/06/01 07:45:40;;;;;;;;;;;20.50;86.10;;;;;;5015982;28;19935;-66
2023/06/01 07:48:06;;;;;;;;;;;20.60;85.50;;;;;;5015609;28;19909;-67
2023/06/01 07:50:32;;;;;;;;;;;20.80;85.20;;;;;;5016944;28;19909;-66
2023/06/01 07:52:57;;;;;;;;;;;21.00;83.90;;;;;;5016980;28;19916;-66
2023/06/01 07:55:23;;;;;;;;;;;21.10;83.60;;;;;;5017133;28;19909;-66
2023/06/01 07:57:49;;;;;;;;;;;21.30;83.40;;;;;;5015117;28;19910;-66
2023/06/01 08:00:17;;;;;;;;;;;21.40;82.20;;;;;;5016460;28;19917;-67
2023/06/01 08:02:46;;;;;;;;;;;21.60;83.00;;;;;;5016048;28;19913;-66
2023/06/01 08:05:11;;;;;;;;;;;21.80;81.70;;;;;;5015781;28;19916;-66
2023/06/01 08:07:37;;;;;;;;;;;22.40;80.80;;;;;;5014317;28;19910;-66
2023/06/01 08:10:08;;;;;;;;;;;23.50;78.80;;;;;;5015896;28;20390;-66
2023/06/01 08:12:34;;;;;;;;;;;25.70;74.80;;;;;;5015489;28;19909;-66
2023/06/01 08:15:00;;;;;;;;;;;28.20;69.40;;;;;;5016614;28;19916;-66
2023/06/01 08:17:25;;;;;;;;;;;30.40;65.00;;;;;;5016266;28;20282;-66
2023/06/01 08:19:52;;;;;;;;;;;31.60;61.20;;;;;;5015601;28;19920;-66
2023/06/01 08:22:20;;;;;;;;;;;32.60;59.70;;;;;;5015781;28;19917;-67
2023/06/01 08:24:47;;;;;;;;;;;34.00;57.70;;;;;;5014750;28;19996;-66
2023/06/01 08:27:16;;;;;;;;;;;35.00;55.80;;;;;;5015853;28;19913;-66
2023/06/01 08:29:41;;;;;;;;;;;35.40;55.00;;;;;;5015160;28;19916;-67
2023/06/01 08:32:07;;;;;;;;;;;36.10;54.10;;;;;;5015814;28;19909;-68
2023/06/01 08:34:33;;;;;;;;;;;36.90;52.90;;;;;;5015656;28;19952;-67
2023/06/01 08:36:58;;;;;;;;;;;36.70;52.90;;;;;;5014275;28;19910;-67
2023/06/01 08:39:24;;;;;;;;;;;37.00;52.20;;;;;;5015570;28;19913;-67
2023/06/01 08:42:08;;;;;;;;;;;38.00;51.30;;;;;;5014035;28;19910;-67
2023/06/01 08:44:38;;;;;;;;;;;37.80;51.10;;;;;;5015325;28;20362;-68
2023/06/01 08:47:04;;;;;;;;;;;38.00;50.60;;;;;;5015300;28;19916;-66
2023/06/01 08:49:30;;;;;;;;;;;38.40;50.50;;;;;;5013885;28;19913;-67
2023/06/01 08:51:57;;;;;;;;;;;38.20;50.10;;;;;;5015690;28;20247;-67
2023/06/01 08:54:22;;;;;;;;;;;37.70;50.10;;;;;;5015027;28;19913;-67
2023/06/01 08:56:48;;;;;;;;;;;36.60;50.70;;;;;;5015192;28;19932;-67
2023/06/01 08:59:13;;;;;;;;;;;36.00;51.50;;;;;;5013670;28;19921;-67
2023/06/01 09:01:39;;;;;;;;;;;36.10;52.00;;;;;;5013488;28;19917;-67
2023/06/01 09:04:05;;;;;;;;;;;36.40;51.50;;;;;;5014552;28;19917;-67
2023/06/01 09:06:30;;;;;;;;;;;37.00;50.90;;;;;;5015007;28;19945;-67
2023/06/01 09:08:56;;;;;;;;;;;36.80;50.50;;;;;;5015028;28;20445;-67
2023/06/01 09:11:21;;;;;;;;;;;36.40;50.80;;;;;;5014835;28;19913;-66
2023/06/01 09:13:47;;;;;;;;;;;37.10;50.70;;;;;;5013802;28;20384;-66
2023/06/01 09:16:12;;;;;;;;;;;37.50;50.10;;;;;;5015015;28;20008;-68
2023/06/01 09:18:51;;;;;;;;;;;38.20;50.20;;;;;;5014265;28;19936;-67
2023/06/01 09:21:17;;;;;;;;;;;39.10;49.50;;;;;;5014759;28;19910;-66
2023/06/01 09:23:43;;;;;;;;;;;39.80;49.10;;;;;;5014544;28;20012;-66
2023/06/01 09:26:10;;;;;;;;;;;40.30;48.70;;;;;;5014694;28;19956;-66
2023/06/01 09:28:54;;;;;;;;;;;39.50;48.90;;;;;;5014549;28;19956;-67
2023/06/01 09:31:34;;;;;;;;;;;40.60;48.40;;;;;;5014154;28;19909;-66
2023/06/01 09:34:02;;;;;;;;;;;40.20;48.40;;;;;;5013984;28;19996;-66
2023/06/01 09:36:28;;;;;;;;;;;39.80;49.10;;;;;;5013632;28;19921;-67
2023/06/01 09:39:03;;;;;;;;;;;39.30;48.90;;;;;;5014079;28;20310;-66
2023/06/01 09:41:48;;;;;;;;;;;39.80;48.70;;;;;;5014078;28;19917;-66
2023/06/01 09:44:14;;;;;;;;;;;38.90;48.60;;;;;;5014326;28;19910;-66
2023/06/01 09:46:46;;;;;;;;;;;38.40;49.50;;;;;;5014539;28;19910;-67
2023/06/01 09:49:17;;;;;;;;;;;38.10;49.60;;;;;;5014020;28;19913;-66
2023/06/01 09:51:43;;;;;;;;;;;38.80;48.60;;;;;;5014130;28;19940;-66
2023/06/01 09:54:08;;;;;;;;;;;39.30;48.80;;;;;;5014035;28;19909;-67
2023/06/01 09:56:44;;;;;;;;;;;39.20;48.80;;;;;;5014295;28;19909;-67
2023/06/01 09:59:10;;;;;;;;;;;39.80;48.40;;;;;;5017949;28;19913;-68
2023/06/01 10:01:35;;;;;;;;;;;40.20;48.20;;;;;;5014387;28;19928;-67
2023/06/01 10:04:02;;;;;;;;;;;40.40;47.90;;;;;;5013605;28;19910;-67
2023/06/01 10:06:28;;;;;;;;;;;40.30;48.10;;;;;;5014373;28;20016;-67
2023/06/01 10:08:55;;;;;;;;;;;40.80;48.20;;;;;;5014819;28;19910;-67
2023/06/01 10:11:20;;;;;;;;;;;41.20;47.80;;;;;;5014435;28;19980;-67
2023/06/01 10:13:46;;;;;;;;;;;40.70;48.00;;;;;;5014258;28;19909;-68
2023/06/01 10:16:12;;;;;;;;;;;41.20;47.40;;;;;;5036601;23;19933;-70
2023/06/01 10:18:38;;;;;;;;;;;41.00;47.20;;;;;;5012533;28;19921;-71
2023/06/01 10:21:06;;;;;;;;;;;41.40;47.40;;;;;;5013991;28;19993;-69
2023/06/01 10:23:31;;;;;;;;;;;41.60;47.10;;;;;;5014273;28;19956;-69
2023/06/01 10:25:58;;;;;;;;;;;41.80;47.30;;;;;;5013856;28;19910;-70
2023/06/01 10:28:25;;;;;;;;;;;42.20;46.90;;;;;;5012549;28;19909;-70
2023/06/01 10:31:10;;;;;;;;;;;42.10;46.90;;;;;;5012386;28;19921;-69
2023/06/01 10:33:54;;;;;;;;;;;42.10;46.80;;;;;;5012184;28;19932;-68
2023/06/01 10:36:19;;;;;;;;;;;41.70;47.00;;;;;;5013681;28;19910;-70
2023/06/01 10:38:45;;;;;;;;;;;40.20;47.70;;;;;;5013959;28;19960;-70
2023/06/01 10:41:30;;;;;;;;;;;40.60;46.40;;;;;;5013836;28;19959;-69
2023/06/01 10:43:55;;;;;;;;;;;39.30;46.90;;;;;;5013752;28;19957;-69
2023/06/01 10:46:30;;;;;;;;;;;39.70;47.60;;;;;;5013042;28;19916;-69
2023/06/01 10:48:57;;;;;;;;;;;39.30;47.70;;;;;;5016529;28;20388;-69
2023/06/01 10:51:24;;;;;;;;;;;39.30;48.50;;;;;;5017095;28;19956;-70
2023/06/01 10:53:50;;;;;;;;;;;38.30;48.60;;;;;;5016098;28;19909;-69
2023/06/01 10:56:20;;;;;;;;;;;38.90;48.60;;;;;;5017200;28;20004;-69
2023/06/01 10:58:46;;;;;;;;;;;39.70;48.20;;;;;;5017273;28;20389;-68
2023/06/01 11:01:18;;;;;;;;;;;39.90;47.80;;;;;;5016688;28;20437;-68
2023/06/01 11:03:45;;;;;;;;;;;40.10;47.50;;;;;;5017177;28;19914;-69
2023/06/01 11:06:28;;;;;;;;;;;39.90;46.10;;;;;;5015746;28;19916;-69
2023/06/01 11:08:55;;;;;;;;;;;38.50;43.50;;;;;;5017264;28;20373;-69
2023/06/01 11:11:21;;;;;;;;;;;36.80;44.70;;;;;;5017074;28;19961;-69
2023/06/01 11:14:05;;;;;;;;;;;34.70;45.80;;;;;;5017129;28;19917;-68
2023/06/01 11:16:31;;;;;;;;;;;33.40;50.50;;;;;;5016409;28;19917;-69
2023/06/01 11:19:00;;;;;;;;;;;31.80;52.90;;;;;;5016815;28;19960;-69
2023/06/01 11:21:29;;;;;;;;;;;31.30;52.40;;;;;;5018040;28;20382;-69
2023/06/01 11:23:55;;;;;;;;;;;30.50;49.00;;;;;;5016094;28;19993;-70
2023/06/01 11:26:24;;;;;;;;;;;30.20;50.10;;;;;;5015297;28;20282;-69
2023/06/01 11:28:50;;;;;;;;;;;30.00;50.70;;;;;;5016758;28;20004;-69
2023/06/01 11:31:16;;;;;;;;;;;29.60;49.60;;;;;;5016229;28;19951;-69
2023/06/01 11:33:48;;;;;;;;;;;29.30;48.00;;;;;;5016417;28;19910;-69
2023/06/01 11:36:14;;;;;;;;;;;29.30;48.40;;;;;;5016788;28;20020;-69
2023/06/01 11:38:41;;;;;;;;;;;29.00;49.00;;;;;;5016249;28;19917;-69
2023/06/01 11:41:08;;;;;;;;;;;28.80;50.00;;;;;;5015186;28;19985;-69
2023/06/01 11:43:33;;;;;;;;;;;28.60;49.30;;;;;;5016364;28;20370;-69
2023/06/01 11:46:03;;;;;;;;;;;28.70;51.80;;;;;;5016401;28;19916;-69
2023/06/01 11:48:28;;;;;;;;;;;28.80;52.40;;;;;;5015156;28;19917;-68
2023/06/01 11:50:59;;;;;;;;;;;28.90;50.60;;;;;;5014995;28;19910;-69
2023/06/01 11:53:24;;;;;;;;;;;28.90;51.00;;;;;;5014934;28;19916;-69
2023/06/01 11:55:50;;;;;;;;;;;28.80;50.10;;;;;;5016145;28;19945;-68
2023/06/01 11:58:25;;;;;;;;;;;28.50;50.60;;;;;;5015927;28;19910;-68
2023/06/01 12:00:55;;;;;;;;;;;28.30;51.10;;;;;;5015196;28;19910;-68
2023/06/01 12:03:20;;;;;;;;;;;28.30;51.50;;;;;;5016055;28;20393;-69
2023/06/01 12:05:48;;;;;;;;;;;28.40;52.00;;;;;;5016309;28;19921;-69
2023/06/01 12:08:14;;;;;;;;;;;28.50;52.40;;;;;;5016853;28;20412;-69
2023/06/01 12:10:42;;;;;;;;;;;28.60;53.60;;;;;;5016836;28;20447;-69
2023/06/01 12:13:07;;;;;;;;;;;28.60;55.40;;;;;;5015986;28;20354;-69
2023/06/01 12:15:33;;;;;;;;;;;28.50;56.10;;;;;;5015262;28;19936;-69
2023/06/01 12:17:58;;;;;;;;;;;28.60;55.90;;;;;;5015649;28;19964;-69
2023/06/01 12:20:31;;;;;;;;;;;28.40;56.00;;;;;;5014190;28;19909;-69
2023/06/01 12:22:57;;;;;;;;;;;28.40;56.40;;;;;;5016320;28;19914;-68
2023/06/01 12:25:23;;;;;;;;;;;28.10;56.40;;;;;;5009047;28;19917;-68
2023/06/01 12:28:01;;;;;;;;;;;28.20;56.70;;;;;;5014302;28;20281;-71
2023/06/01 12:30:27;;;;;;;;;;;28.30;55.60;;;;;;5014259;28;19914;-69
2023/06/01 12:32:52;;;;;;;;;;;28.00;55.30;;;;;;5015612;28;19996;-70
2023/06/01 12:35:18;;;;;;;;;;;27.90;55.50;;;;;;5016278;28;19909;-70
2023/06/01 12:37:43;;;;;;;;;;;28.00;53.90;;;;;;5008807;28;19961;-69
2023/06/01 12:40:09;;;;;;;;;;;28.10;54.20;;;;;;5012366;28;19913;-68
2023/06/01 12:42:36;;;;;;;;;;;28.20;54.20;;;;;;5015210;28;20350;-66
2023/06/01 12:45:02;;;;;;;;;;;28.30;54.70;;;;;;5016048;28;19910;-68
2023/06/01 12:47:33;;;;;;;;;;;28.20;55.00;;;;;;5013574;28;19925;-68
2023/06/01 12:50:06;;;;;;;;;;;28.20;55.70;;;;;;5015736;28;20270;-68
2023/06/01 12:52:32;;;;;;;;;;;27.90;55.50;;;;;;5014906;28;20000;-67
2023/06/01 12:54:57;;;;;;;;;;;28.00;56.10;;;;;;5015310;28;19953;-68
2023/06/01 12:57:23;;;;;;;;;;;28.10;56.10;;;;;;5016169;28;19913;-67
2023/06/01 12:59:48;;;;;;;;;;;28.30;55.90;;;;;;5014714;28;19960;-67
2023/06/01 13:02:14;;;;;;;;;;;28.50;55.30;;;;;;5014809;28;19933;-68
2023/06/01 13:04:40;;;;;;;;;;;28.60;55.10;;;;;;5015297;28;19910;-67
2023/06/01 13:07:05;;;;;;;;;;;28.60;55.10;;;;;;5015032;28;19967;-67
2023/06/01 13:09:31;;;;;;;;;;;28.50;55.10;;;;;;5014403;28;19913;-67
2023/06/01 13:11:57;;;;;;;;;;;28.40;55.10;;;;;;5014838;28;19909;-68
2023/06/01 13:14:22;;;;;;;;;;;28.30;55.40;;;;;;5014320;28;19910;-68
2023/06/01 13:16:48;;;;;;;;;;;28.30;55.10;;;;;;5013829;28;19918;-67
2023/06/01 13:19:13;;;;;;;;;;;28.40;55.00;;;;;;5014518;28;19914;-68
2023/06/01 13:21:39;;;;;;;;;;;28.50;55.00;;;;;;5014795;28;20414;-68
2023/06/01 13:24:04;;;;;;;;;;;28.50;54.90;;;;;;5014635;28;19936;-67
2023/06/01 13:26:30;;;;;;;;;;;28.50;55.00;;;;;;5014326;28;19913;-67
2023/06/01 13:28:55;;;;;;;;;;;28.40;54.70;;;;;;5013534;28;19917;-67
2023/06/01 13:31:21;;;;;;;;;;;28.30;54.80;;;;;;4994853;28;19910;-67
2023/06/01 13:33:47;;;;;;;;;;;28.40;55.00;;;;;;5008888;28;20428;-67
2023/06/01 13:36:12;;;;;;;;;;;28.40;55.10;;;;;;5013967;28;19909;-66
2023/06/01 13:38:38;;;;;;;;;;;28.40;55.30;;;;;;5014613;28;19995;-68
2023/06/01 13:41:05;;;;;;;;;;;28.40;55.30;;;;;;5009827;28;21270;-66
2023/06/01 13:43:31;;;;;;;;;;;28.50;55.10;;;;;;5009850;28;20009;-66
2023/06/01 13:45:56;;;;;;;;;;;28.60;55.00;;;;;;5010950;28;19910;-67
2023/06/01 13:48:22;;;;;;;;;;;28.70;54.90;;;;;;5014058;28;19914;-67
2023/06/01 13:50:47;;;;;;;;;;;28.70;55.10;;;;;;5010606;28;20393;-69
2023/06/01 13:53:13;;;;;;;;;;;28.70;55.20;;;;;;4996935;28;19964;-69
2023/06/01 13:55:39;;;;;;;;;;;28.60;54.30;;;;;;4993658;28;20367;-69
2023/06/01 13:58:04;;;;;;;;;;;28.40;55.20;;;;;;4994943;28;19910;-69
2023/06/01 14:00:30;;;;;;;;;;;28.50;55.20;;;;;;4994230;28;19913;-69
2023/06/01 14:02:55;;;;;;;;;;;28.60;54.90;;;;;;4994623;28;19989;-69
2023/06/01 14:05:21;;;;;;;;;;;28.60;54.40;;;;;;5013940;28;19932;-69
2023/06/01 14:07:46;;;;;;;;;;;28.40;54.50;;;;;;5011213;28;19996;-69
2023/06/01 14:10:13;;;;;;;;;;;28.20;55.10;;;;;;5008741;28;19957;-67
2023/06/01 14:12:39;;;;;;;;;;;28.30;55.00;;;;;;5012976;28;20374;-68
2023/06/01 14:15:05;;;;;;;;;;;28.30;54.70;;;;;;5014724;28;19979;-67
2023/06/01 14:17:31;;;;;;;;;;;28.40;54.90;;;;;;5014185;28;19905;-68
2023/06/01 14:19:56;;;;;;;;;;;28.50;54.90;;;;;;5014132;28;19921;-68
2023/06/01 14:22:22;;;;;;;;;;;28.40;54.80;;;;;;5013726;28;19914;-68
2023/06/01 14:24:47;;;;;;;;;;;28.50;54.50;;;;;;5017678;28;19960;-68
2023/06/01 14:27:13;;;;;;;;;;;28.60;54.40;;;;;;5017850;28;20000;-68
2023/06/01 14:29:38;;;;;;;;;;;28.60;55.00;;;;;;5017842;28;19914;-67
2023/06/01 14:32:04;;;;;;;;;;;28.70;54.70;;;;;;5017654;28;19957;-68
2023/06/01 14:34:29;;;;;;;;;;;28.70;54.40;;;;;;5017626;28;19917;-68
2023/06/01 14:36:55;;;;;;;;;;;28.70;54.40;;;;;;5017386;28;19909;-68
2023/06/01 14:39:20;;;;;;;;;;;28.70;54.50;;;;;;5017517;28;19910;-68
2023/06/01 14:41:46;;;;;;;;;;;28.70;54.60;;;;;;5017575;28;19955;-68
2023/06/01 14:44:11;;;;;;;;;;;28.70;54.60;;;;;;5017593;28;19932;-69
2023/06/01 14:46:37;;;;;;;;;;;28.80;54.40;;;;;;5016405;28;19917;-69
2023/06/01 14:49:03;;;;;;;;;;;28.80;55.00;;;;;;5015077;28;19921;-69
2023/06/01 14:51:30;;;;;;;;;;;28.70;54.50;;;;;;5012870;28;19932;-69
2023/06/01 14:53:56;;;;;;;;;;;28.70;54.50;;;;;;5001634;28;20012;-69
2023/06/01 14:56:22;;;;;;;;;;;28.70;54.60;;;;;;4997898;28;20382;-68
2023/06/01 14:58:47;;;;;;;;;;;28.70;54.60;;;;;;5008357;28;20390;-68
2023/06/01 15:01:13;;;;;;;;;;;28.70;54.50;;;;;;5016930;28;19959;-68
2023/06/01 15:03:38;;;;;;;;;;;28.70;54.20;;;;;;5017162;28;19960;-68
2023/06/01 15:06:04;;;;;;;;;;;28.70;54.40;;;;;;5017372;28;19922;-69
2023/06/01 15:08:29;;;;;;;;;;;28.70;54.00;;;;;;5017221;28;20007;-67
2023/06/01 15:10:55;;;;;;;;;;;28.80;53.40;;;;;;5016792;28;19916;-71
2023/06/01 15:13:20;;;;;;;;;;;28.80;53.80;;;;;;5014037;28;20362;-70
2023/06/01 15:15:45;;;;;;;;;;;28.70;53.90;;;;;;5008668;28;19928;-70
2023/06/01 15:18:11;;;;;;;;;;;28.50;54.20;;;;;;5014361;28;19921;-70
2023/06/01 15:20:36;;;;;;;;;;;28.50;54.10;;;;;;5016774;28;19920;-67
2023/06/01 15:23:02;;;;;;;;;;;28.50;54.00;;;;;;5017018;28;19910;-66
2023/06/01 15:25:27;;;;;;;;;;;28.50;54.10;;;;;;5016674;28;19965;-68
2023/06/01 15:27:53;;;;;;;;;;;28.40;54.20;;;;;;5015297;28;20019;-67
2023/06/01 15:30:18;;;;;;;;;;;28.20;54.20;;;;;;5015161;28;19913;-68
2023/06/01 15:32:43;;;;;;;;;;;28.20;54.50;;;;;;5016398;28;19920;-68
2023/06/01 15:35:09;;;;;;;;;;;28.20;54.70;;;;;;5015348;28;19917;-67
2023/06/01 15:37:35;;;;;;;;;;;28.20;54.70;;;;;;5016502;28;20401;-67
2023/06/01 15:40:01;;;;;;;;;;;28.30;54.30;;;;;;5016372;28;20004;-67
2023/06/01 15:42:26;;;;;;;;;;;28.30;54.10;;;;;;5016538;28;19913;-66
2023/06/01 15:44:52;;;;;;;;;;;28.20;54.10;;;;;;5015746;28;20305;-69
2023/06/01 15:47:17;;;;;;;;;;;28.10;54.00;;;;;;5006791;28;19965;-70
2023/06/01 15:49:43;;;;;;;;;;;28.00;53.60;;;;;;5001739;28;20040;-70
2023/06/01 15:52:08;;;;;;;;;;;28.00;53.60;;;;;;5016568;28;20001;-70
2023/06/01 15:54:34;;;;;;;;;;;28.00;53.10;;;;;;5000015;28;19914;-71
2023/06/01 15:57:00;;;;;;;;;;;28.10;53.10;;;;;;5003963;28;19910;-71
2023/06/01 15:59:26;;;;;;;;;;;28.10;52.80;;;;;;5004414;28;19921;-71
2023/06/01 16:01:51;;;;;;;;;;;27.90;53.00;;;;;;5015472;28;19975;-71
2023/06/01 16:04:16;;;;;;;;;;;28.00;53.10;;;;;;5006397;28;20362;-71
2023/06/01 16:06:42;;;;;;;;;;;27.90;53.30;;;;;;5003849;28;19948;-71
2023/06/01 16:09:08;;;;;;;;;;;27.90;53.60;;;;;;5007361;28;20373;-70
2023/06/01 16:11:33;;;;;;;;;;;28.00;54.00;;;;;;5015472;28;19913;-70
2023/06/01 16:13:59;;;;;;;;;;;28.00;54.20;;;;;;5013930;28;19929;-70
2023/06/01 16:16:25;;;;;;;;;;;28.10;54.50;;;;;;5015741;28;19917;-70
2023/06/01 16:18:50;;;;;;;;;;;28.10;54.20;;;;;;5015652;28;20428;-69
2023/06/01 16:21:16;;;;;;;;;;;27.90;54.90;;;;;;5015517;28;19948;-68
2023/06/01 16:23:42;;;;;;;;;;;27.70;54.70;;;;;;5015757;28;20360;-69
2023/06/01 16:26:07;;;;;;;;;;;27.60;55.10;;;;;;5014313;28;20281;-69
2023/06/01 16:28:34;;;;;;;;;;;27.50;55.50;;;;;;5015713;28;19959;-69
2023/06/01 16:31:00;;;;;;;;;;;27.40;55.70;;;;;;5015382;28;19952;-70
2023/06/01 16:33:25;;;;;;;;;;;27.50;55.90;;;;;;5015642;28;19947;-69
2023/06/01 16:35:51;;;;;;;;;;;27.40;56.00;;;;;;5013919;28;19910;-69
2023/06/01 16:38:16;;;;;;;;;;;27.50;56.40;;;;;;5015637;28;19909;-69
2023/06/01 16:40:42;;;;;;;;;;;27.50;56.60;;;;;;5015503;28;19910;-69
2023/06/01 16:43:07;;;;;;;;;;;27.40;55.70;;;;;;5014974;28;19909;-70
2023/06/01 16:45:33;;;;;;;;;;;27.40;56.00;;;;;;5013426;28;19910;-68
2023/06/01 16:47:58;;;;;;;;;;;27.30;56.00;;;;;;5013692;28;19953;-69
2023/06/01 16:50:24;;;;;;;;;;;27.30;56.00;;;;;;5013738;28;19917;-69
2023/06/01 16:52:49;;;;;;;;;;;27.30;56.10;;;;;;5015054;28;20428;-69
2023/06/01 16:55:15;;;;;;;;;;;27.30;56.30;;;;;;5015240;28;19997;-69
2023/06/01 16:57:40;;;;;;;;;;;27.30;56.50;;;;;;5015043;28;20022;-68
2023/06/01 17:00:06;;;;;;;;;;;27.30;55.70;;;;;;5014958;28;20277;-69
2023/06/01 17:02:32;;;;;;;;;;;27.10;56.50;;;;;;5014666;28;19909;-69
2023/06/01 17:04:57;;;;;;;;;;;27.20;55.90;;;;;;5014689;28;20000;-69
2023/06/01 17:07:23;;;;;;;;;;;27.10;56.10;;;;;;5014138;28;19909;-69
2023/06/01 17:09:49;;;;;;;;;;;27.10;56.00;;;;;;5013467;28;19914;-69
2023/06/01 17:12:17;;;;;;;;;;;27.10;55.90;;;;;;5015154;28;19917;-70
2023/06/01 17:14:46;;;;;;;;;;;27.00;56.00;;;;;;5015109;28;20003;-69
2023/06/01 17:17:14;;;;;;;;;;;27.00;56.30;;;;;;5013181;28;19918;-70
2023/06/01 17:19:40;;;;;;;;;;;27.00;56.20;;;;;;5014791;28;19910;-69
2023/06/01 17:22:06;;;;;;;;;;;26.80;56.10;;;;;;5013379;28;20286;-69
2023/06/01 17:24:31;;;;;;;;;;;26.80;56.20;;;;;;5013200;28;19916;-69
2023/06/01 17:26:57;;;;;;;;;;;26.70;55.70;;;;;;5014277;28;19909;-69
2023/06/01 17:29:22;;;;;;;;;;;26.70;56.10;;;;;;5014379;28;19913;-69
2023/06/01 17:31:47;;;;;;;;;;;26.70;56.10;;;;;;5014666;28;19917;-69
2023/06/01 17:34:13;;;;;;;;;;;26.60;56.10;;;;;;5014563;28;20028;-71
2023/06/01 17:36:38;;;;;;;;;;;26.60;55.90;;;;;;5014700;28;19932;-70
2023/06/01 17:39:04;;;;;;;;;;;26.50;56.20;;;;;;5021027;28;19914;-70
2023/06/01 17:41:29;;;;;;;;;;;26.50;56.10;;;;;;5019641;28;19909;-68
2023/06/01 17:43:55;;;;;;;;;;;26.40;56.50;;;;;;5013574;28;19979;-70
2023/06/01 17:46:20;;;;;;;;;;;26.40;56.60;;;;;;5013051;28;19959;-70
2023/06/01 17:48:46;;;;;;;;;;;26.40;56.80;;;;;;5014477;28;19917;-71
2023/06/01 17:51:11;;;;;;;;;;;26.30;56.90;;;;;;5014815;28;20001;-70
2023/06/01 17:53:37;;;;;;;;;;;26.30;56.80;;;;;;5015053;28;19945;-71
2023/06/01 17:56:02;;;;;;;;;;;26.20;56.90;;;;;;5027293;28;19917;-70
2023/06/01 17:58:28;;;;;;;;;;;26.20;56.90;;;;;;5032109;28;19914;-71
2023/06/01 18:00:54;;;;;;;;;;;26.20;56.90;;;;;;5028879;28;19914;-70
2023/06/01 18:03:19;;;;;;;;;;;26.20;57.00;;;;;;5017491;28;19917;-70
2023/06/01 18:05:45;;;;;;;;;;;26.20;56.50;;;;;;5014029;28;19910;-70
2023/06/01 18:08:10;;;;;;;;;;;26.10;56.60;;;;;;5014121;28;20309;-69
2023/06/01 18:10:36;;;;;;;;;;;26.00;56.50;;;;;;5014629;28;19914;-70
2023/06/01 18:13:01;;;;;;;;;;;26.00;55.70;;;;;;5013067;28;19916;-70